createdAt,value
2019-02-06T00:01:34.608Z,1.40
2019-02-06T00:04:03.848Z,1.20
2019-02-06T00:06:33.506Z,1.10
2019-02-06T00:09:04.385Z,1.00
2019-02-06T00:11:35.380Z,0.90
2019-02-06T00:14:04.664Z,0.80
2019-02-06T00:16:33.947Z,0.70
2019-02-06T00:19:03.173Z,0.70
2019-02-06T00:21:32.420Z,0.60
2019-02-06T00:24:01.661Z,0.60
2019-02-06T00:26:30.920Z,0.60
2019-02-06T00:29:00.157Z,0.50
2019-02-06T00:31:29.703Z,0.50
2019-02-06T00:33:58.871Z,0.50
2019-02-06T00:36:28.112Z,0.80
2019-02-06T00:38:57.372Z,0.80
2019-02-06T00:41:26.612Z,0.90
2019-02-06T00:43:55.867Z,0.90
2019-02-06T00:46:25.116Z,0.80
2019-02-06T00:48:54.440Z,0.90
2019-02-06T00:51:23.676Z,0.80
2019-02-06T00:53:52.999Z,0.90
2019-02-06T00:56:22.165Z,1.00
2019-02-06T00:58:51.425Z,1.10
2019-02-06T01:01:21.138Z,1.20
2019-02-06T01:03:50.389Z,1.30
2019-02-06T01:06:19.624Z,1.40
2019-02-06T01:08:48.886Z,1.40
2019-02-06T01:11:18.261Z,1.40
2019-02-06T01:13:47.516Z,1.50
2019-02-06T01:16:16.760Z,1.50
2019-02-06T01:18:46.124Z,1.50
2019-02-06T01:21:15.371Z,1.60
2019-02-06T01:23:44.924Z,1.60
2019-02-06T01:26:14.084Z,1.60
2019-02-06T01:28:43.349Z,1.70
2019-02-06T01:31:13.956Z,1.70
2019-02-06T01:33:43.212Z,1.70
2019-02-06T01:36:12.456Z,1.70
2019-02-06T01:38:42.120Z,1.60
2019-02-06T01:41:11.354Z,1.60
2019-02-06T01:43:40.617Z,1.60
2019-02-06T01:46:09.851Z,1.60
2019-02-06T01:48:39.116Z,1.60
2019-02-06T01:51:08.347Z,1.60
2019-02-06T01:53:37.612Z,1.50
2019-02-06T01:56:06.852Z,1.50
2019-02-06T01:58:36.116Z,1.40
2019-02-06T02:01:05.426Z,1.30
2019-02-06T02:03:34.684Z,1.30
2019-02-06T02:06:04.992Z,1.30
2019-02-06T02:08:35.900Z,1.20
2019-02-06T02:11:05.135Z,1.30
2019-02-06T02:13:34.465Z,1.40
2019-02-06T02:16:03.699Z,1.40
2019-02-06T02:18:32.955Z,1.40
2019-02-06T02:21:02.188Z,1.50
2019-02-06T02:23:31.453Z,1.50
2019-02-06T02:26:00.789Z,1.60
2019-02-06T02:28:30.052Z,1.70
2019-02-06T02:30:59.457Z,1.70
2019-02-06T02:33:28.720Z,1.70
2019-02-06T02:35:57.912Z,1.70
2019-02-06T02:38:27.155Z,1.70
2019-02-06T02:40:57.228Z,1.70
2019-02-06T02:43:26.499Z,1.60
2019-02-06T02:45:55.734Z,1.50
2019-02-06T02:48:25.056Z,1.50
2019-02-06T02:50:54.294Z,1.60
2019-02-06T02:53:23.552Z,1.60
2019-02-06T02:55:52.917Z,1.70
2019-02-06T02:58:22.157Z,1.70
2019-02-06T03:01:11.225Z,1.70
2019-02-06T03:03:42.125Z,1.60
2019-02-06T03:06:11.662Z,1.60
2019-02-06T03:08:40.920Z,1.60
2019-02-06T03:11:11.132Z,1.70
2019-02-06T03:13:40.408Z,1.70
2019-02-06T03:16:09.648Z,1.70
2019-02-06T03:18:38.885Z,1.70
2019-02-06T03:21:08.345Z,1.60
2019-02-06T03:23:37.584Z,1.60
2019-02-06T03:26:06.840Z,1.60
2019-02-06T03:28:36.080Z,1.60
2019-02-06T03:31:05.355Z,1.70
2019-02-06T03:33:34.572Z,1.70
2019-02-06T03:36:04.143Z,1.70
2019-02-06T03:38:33.388Z,1.70
2019-02-06T03:41:02.651Z,1.70
2019-02-06T03:43:31.884Z,1.70
2019-02-06T03:46:01.149Z,1.70
2019-02-06T03:48:30.380Z,1.70
2019-02-06T03:50:59.640Z,1.80
2019-02-06T03:53:28.876Z,1.80
2019-02-06T03:55:58.136Z,1.90
2019-02-06T03:58:27.305Z,1.90
2019-02-06T04:00:56.569Z,2.00
2019-02-06T04:03:25.822Z,2.00
2019-02-06T04:05:55.078Z,2.00
2019-02-06T04:08:24.320Z,2.10
2019-02-06T04:10:53.589Z,2.10
2019-02-06T04:13:22.816Z,2.10
2019-02-06T04:15:52.076Z,2.10
2019-02-06T04:18:21.315Z,2.20
2019-02-06T04:20:50.581Z,2.20
2019-02-06T04:23:19.960Z,2.20
2019-02-06T04:25:49.173Z,2.20
2019-02-06T04:28:18.420Z,2.10
2019-02-06T04:30:47.672Z,2.20
2019-02-06T04:33:16.921Z,2.20
2019-02-06T04:35:46.184Z,2.20
2019-02-06T04:38:15.719Z,2.20
2019-02-06T04:40:44.979Z,2.20
2019-02-06T04:43:14.208Z,2.20
2019-02-06T04:45:43.573Z,2.20
2019-02-06T04:48:12.808Z,2.20
2019-02-06T04:50:42.069Z,2.20
2019-02-06T04:53:11.610Z,2.20
2019-02-06T04:55:40.869Z,2.30
2019-02-06T04:58:10.111Z,2.30
2019-02-06T05:00:39.377Z,2.40
2019-02-06T05:03:08.626Z,2.40
2019-02-06T05:05:37.869Z,2.40
2019-02-06T05:08:08.737Z,2.40
2019-02-06T05:10:38.015Z,2.50
2019-02-06T05:13:07.304Z,2.50
2019-02-06T05:15:36.484Z,2.50
2019-02-06T05:18:05.723Z,2.60
2019-02-06T05:20:37.016Z,2.60
2019-02-06T05:23:08.194Z,2.60
2019-02-06T05:25:37.431Z,2.60
2019-02-06T05:28:06.673Z,2.60
2019-02-06T05:30:35.909Z,2.60
2019-02-06T05:33:05.167Z,2.60
2019-02-06T05:35:34.408Z,2.60
2019-02-06T05:38:03.668Z,2.60
2019-02-06T05:40:32.909Z,2.60
2019-02-06T05:43:02.177Z,2.60
2019-02-06T05:45:31.412Z,2.70
2019-02-06T05:48:00.671Z,2.70
2019-02-06T05:50:29.918Z,2.80
2019-02-06T05:52:59.212Z,2.80
2019-02-06T05:55:28.812Z,2.90
2019-02-06T05:57:58.076Z,3.00
2019-02-06T06:00:29.057Z,3.00
2019-02-06T06:02:58.342Z,3.00
2019-02-06T06:05:27.554Z,3.00
2019-02-06T06:07:56.816Z,3.00
2019-02-06T06:10:26.558Z,2.90
2019-02-06T06:12:55.816Z,2.90
2019-02-06T06:15:24.988Z,2.90
2019-02-06T06:17:54.177Z,2.90
2019-02-06T06:20:23.417Z,2.90
2019-02-06T06:22:52.676Z,2.90
2019-02-06T06:25:22.381Z,2.90
2019-02-06T06:27:51.658Z,2.90
2019-02-06T06:30:21.159Z,2.90
2019-02-06T06:32:50.413Z,2.90
2019-02-06T06:35:19.692Z,2.90
2019-02-06T06:37:57.783Z,2.90
2019-02-06T06:40:21.666Z,2.90
2019-02-06T06:42:52.000Z,2.80
2019-02-06T06:45:23.473Z,2.90
2019-02-06T06:47:52.801Z,2.90
2019-02-06T06:50:23.778Z,2.80
2019-02-06T06:52:53.042Z,2.90
2019-02-06T06:55:22.580Z,2.90
2019-02-06T06:57:51.847Z,2.90
2019-02-06T07:00:26.939Z,2.90
2019-02-06T07:02:56.192Z,2.90
2019-02-06T07:05:25.550Z,2.90
2019-02-06T07:07:54.872Z,2.90
2019-02-06T07:10:24.514Z,2.90
2019-02-06T07:12:53.774Z,2.90
2019-02-06T07:15:29.391Z,2.90
2019-02-06T07:17:58.661Z,2.90
2019-02-06T07:20:27.896Z,2.90
2019-02-06T07:22:57.155Z,2.90
2019-02-06T07:25:26.408Z,2.90
2019-02-06T07:27:55.661Z,2.90
2019-02-06T07:30:29.536Z,2.90
2019-02-06T07:32:58.788Z,2.90
2019-02-06T07:35:28.092Z,2.90
2019-02-06T07:37:57.665Z,3.00
2019-02-06T07:40:26.895Z,3.00
2019-02-06T07:42:56.159Z,3.00
2019-02-06T07:45:25.396Z,3.10
2019-02-06T07:47:54.629Z,3.20
2019-02-06T07:50:34.184Z,3.20
2019-02-06T07:53:03.440Z,3.30
2019-02-06T07:55:32.677Z,3.30
2019-02-06T07:58:02.015Z,3.40
2019-02-06T08:00:32.216Z,3.40
2019-02-06T08:03:01.473Z,3.50
2019-02-06T08:05:30.811Z,3.50
2019-02-06T08:08:00.072Z,3.50
2019-02-06T08:10:34.507Z,3.50
2019-02-06T08:13:04.484Z,3.60
2019-02-06T08:15:33.752Z,3.70
2019-02-06T08:18:02.993Z,3.80
2019-02-06T08:20:32.326Z,3.80
2019-02-06T08:23:01.567Z,3.90
2019-02-06T08:25:30.837Z,3.90
2019-02-06T08:28:00.073Z,3.90
2019-02-06T08:30:38.069Z,3.90
2019-02-06T08:33:07.312Z,4.00
2019-02-06T08:35:36.568Z,4.10
2019-02-06T08:38:05.817Z,4.20
2019-02-06T08:40:35.052Z,4.20
2019-02-06T08:43:04.295Z,4.30
2019-02-06T08:45:33.545Z,4.30
2019-02-06T08:48:02.779Z,4.40
2019-02-06T08:50:32.252Z,4.40
2019-02-06T08:53:01.492Z,4.50
2019-02-06T08:55:32.445Z,4.60
2019-02-06T08:58:01.978Z,4.60
2019-02-06T09:00:36.068Z,4.70
2019-02-06T09:03:06.386Z,4.80
2019-02-06T09:05:35.637Z,4.80
2019-02-06T09:08:04.918Z,4.80
2019-02-06T09:10:34.169Z,4.90
2019-02-06T09:13:03.473Z,4.90
2019-02-06T09:15:32.739Z,4.90
2019-02-06T09:18:02.032Z,4.90
2019-02-06T09:20:31.249Z,5.00
2019-02-06T09:23:00.508Z,5.00
2019-02-06T09:25:29.912Z,5.10
2019-02-06T09:27:59.220Z,5.20
2019-02-06T09:30:31.686Z,5.20
2019-02-06T09:33:00.940Z,5.30
2019-02-06T09:35:30.109Z,5.40
2019-02-06T09:37:59.365Z,5.40
2019-02-06T09:40:30.320Z,5.40
2019-02-06T09:42:59.591Z,5.50
2019-02-06T09:45:28.820Z,5.60
2019-02-06T09:47:58.080Z,5.70
2019-02-06T09:50:32.688Z,5.60
2019-02-06T09:53:02.910Z,5.60
2019-02-06T09:55:33.116Z,5.60
2019-02-06T09:58:03.417Z,5.70
2019-02-06T10:00:35.912Z,5.70
2019-02-06T10:03:05.904Z,5.80
2019-02-06T10:05:35.149Z,5.90
2019-02-06T10:08:04.527Z,5.90
2019-02-06T10:10:33.693Z,6.10
2019-02-06T10:13:02.949Z,6.20
2019-02-06T10:15:34.224Z,6.30
2019-02-06T10:18:03.675Z,6.30
2019-02-06T10:20:38.961Z,6.40
2019-02-06T10:23:08.376Z,6.40
2019-02-06T10:25:37.614Z,6.30
2019-02-06T10:28:06.937Z,6.30
2019-02-06T10:30:38.965Z,6.40
2019-02-06T10:33:08.220Z,6.40
2019-02-06T10:35:37.447Z,6.40
2019-02-06T10:38:06.704Z,6.30
2019-02-06T10:40:35.940Z,6.30
2019-02-06T10:43:05.469Z,6.40
2019-02-06T10:45:34.693Z,6.50
2019-02-06T10:48:04.114Z,6.60
2019-02-06T10:50:35.889Z,6.70
2019-02-06T10:53:05.148Z,6.80
2019-02-06T10:55:34.381Z,6.90
2019-02-06T10:58:03.734Z,7.10
2019-02-06T11:00:37.209Z,7.10
2019-02-06T11:03:06.465Z,7.10
2019-02-06T11:05:35.706Z,7.30
2019-02-06T11:08:05.059Z,7.30
2019-02-06T11:10:34.351Z,7.40
2019-02-06T11:13:04.152Z,7.50
2019-02-06T11:15:33.711Z,7.50
2019-02-06T11:18:03.018Z,7.50
2019-02-06T11:20:34.825Z,7.50
2019-02-06T11:23:04.234Z,7.50
2019-02-06T11:25:33.491Z,7.60
2019-02-06T11:28:02.719Z,7.50
2019-02-06T11:30:34.877Z,7.40
2019-02-06T11:33:04.948Z,7.40
2019-02-06T11:35:34.200Z,7.40
2019-02-06T11:38:05.068Z,7.50
2019-02-06T11:40:34.249Z,7.50
2019-02-06T11:43:03.557Z,7.50
2019-02-06T11:45:33.953Z,7.50
2019-02-06T11:48:03.262Z,7.50
2019-02-06T11:50:34.153Z,7.50
2019-02-06T11:53:03.376Z,7.50
2019-02-06T11:55:32.647Z,7.50
2019-02-06T11:58:01.875Z,7.60
2019-02-06T12:00:44.745Z,7.70
2019-02-06T12:03:13.976Z,7.70
2019-02-06T12:05:43.233Z,7.80
2019-02-06T12:08:12.839Z,7.80
2019-02-06T12:10:42.226Z,7.70
2019-02-06T12:13:11.532Z,7.80
2019-02-06T12:15:40.784Z,7.70
2019-02-06T12:18:10.093Z,7.80
2019-02-06T12:20:39.359Z,7.90
2019-02-06T12:23:08.596Z,7.90
2019-02-06T12:25:37.854Z,7.90
2019-02-06T12:28:07.389Z,8.00
2019-02-06T12:30:41.102Z,8.00
2019-02-06T12:33:10.406Z,7.90
2019-02-06T12:35:39.662Z,8.00
2019-02-06T12:38:08.892Z,7.80
2019-02-06T12:40:39.127Z,7.80
2019-02-06T12:43:10.451Z,7.80
2019-02-06T12:45:39.600Z,7.70
2019-02-06T12:48:08.828Z,7.80
2019-02-06T12:50:38.088Z,7.80
2019-02-06T12:53:07.321Z,7.90
2019-02-06T12:55:38.808Z,7.90
2019-02-06T12:58:09.172Z,7.90
2019-02-06T13:00:43.132Z,7.90
2019-02-06T13:03:12.363Z,8.00
2019-02-06T13:05:41.633Z,8.00
2019-02-06T13:08:10.857Z,8.00
2019-02-06T13:10:40.117Z,8.00
2019-02-06T13:13:09.922Z,8.00
2019-02-06T13:15:39.190Z,8.00
2019-02-06T13:18:08.397Z,8.10
2019-02-06T13:20:37.654Z,8.10
2019-02-06T13:23:06.883Z,8.10
2019-02-06T13:25:36.067Z,8.10
2019-02-06T13:28:05.661Z,8.20
2019-02-06T13:30:36.720Z,8.30
2019-02-06T13:33:07.596Z,8.40
2019-02-06T13:35:37.496Z,8.40
2019-02-06T13:38:06.736Z,8.50
2019-02-06T13:40:45.094Z,8.60
2019-02-06T13:43:06.858Z,8.60
2019-02-06T13:45:41.795Z,8.60
2019-02-06T13:48:11.020Z,8.60
2019-02-06T13:50:40.289Z,8.60
2019-02-06T13:53:09.518Z,8.70
2019-02-06T13:55:38.756Z,8.70
2019-02-06T13:58:19.895Z,8.60
2019-02-06T14:00:41.536Z,8.70
2019-02-06T14:03:10.751Z,8.60
2019-02-06T14:05:40.257Z,8.70
2019-02-06T14:08:11.852Z,8.70
2019-02-06T14:10:41.092Z,8.80
2019-02-06T14:13:10.353Z,8.70
2019-02-06T14:15:41.720Z,8.80
2019-02-06T14:18:10.972Z,8.80
2019-02-06T14:20:40.646Z,8.80
2019-02-06T14:23:18.559Z,8.80
2019-02-06T14:25:56.445Z,8.90
2019-02-06T14:28:44.507Z,8.90
2019-02-06T14:31:17.261Z,8.90
2019-02-06T14:34:08.167Z,8.80
2019-02-06T14:36:55.700Z,8.80
2019-02-06T14:39:31.553Z,8.80
2019-02-06T14:42:12.791Z,8.80
2019-02-06T14:45:07.678Z,8.70
2019-02-06T14:47:42.820Z,8.80
2019-02-06T14:50:27.374Z,8.80
2019-02-06T14:53:05.805Z,8.80
2019-02-06T14:55:44.105Z,8.80
2019-02-06T14:58:34.452Z,8.80
2019-02-06T15:01:21.819Z,8.90
2019-02-06T15:04:16.159Z,8.80
2019-02-06T15:06:57.609Z,8.80
2019-02-06T15:10:01.925Z,8.80
2019-02-06T15:12:44.532Z,8.70
2019-02-06T15:15:42.871Z,8.80
2019-02-06T15:18:31.947Z,8.80
2019-02-06T15:21:09.780Z,8.70
2019-02-06T15:24:03.524Z,8.70
2019-02-06T15:26:47.589Z,8.70
2019-02-06T15:29:25.738Z,8.70
2019-02-06T15:32:24.045Z,8.70
2019-02-06T15:35:20.616Z,8.70
2019-02-06T15:38:11.164Z,8.70
2019-02-06T15:40:52.425Z,8.70
2019-02-06T15:43:36.787Z,8.70
2019-02-06T15:46:28.861Z,8.70
2019-02-06T15:49:18.833Z,8.60
2019-02-06T15:51:57.029Z,8.60
2019-02-06T15:54:47.469Z,8.60
2019-02-06T15:57:29.057Z,8.60
2019-02-06T16:00:10.269Z,8.60
2019-02-06T16:02:48.856Z,8.50
2019-02-06T16:05:31.811Z,8.50
2019-02-06T16:08:04.301Z,8.50
2019-02-06T16:10:57.820Z,8.40
2019-02-06T16:13:56.228Z,8.40
2019-02-06T16:16:46.379Z,8.30
2019-02-06T16:19:30.772Z,8.30
2019-02-06T16:22:22.604Z,8.20
2019-02-06T16:25:18.012Z,8.20
2019-02-06T16:28:17.221Z,8.20
2019-02-06T16:31:01.482Z,8.10
2019-02-06T16:33:39.681Z,8.10
2019-02-06T16:36:14.941Z,8.00
2019-02-06T16:39:02.328Z,7.90
2019-02-06T16:41:53.079Z,7.90
2019-02-06T16:44:36.178Z,7.90
2019-02-06T16:47:14.428Z,7.90
2019-02-06T16:49:52.874Z,7.90
2019-02-06T16:52:36.865Z,8.00
2019-02-06T16:55:28.965Z,8.00
2019-02-06T16:58:07.412Z,8.00
2019-02-06T17:00:45.622Z,8.00
2019-02-06T17:03:41.877Z,7.90
2019-02-06T17:06:26.387Z,7.90
2019-02-06T17:08:58.945Z,7.90
2019-02-06T17:11:46.254Z,7.90
2019-02-06T17:14:26.173Z,7.80
2019-02-06T17:17:01.571Z,7.60
2019-02-06T17:19:52.513Z,7.50
2019-02-06T17:22:44.588Z,7.30
2019-02-06T17:25:44.381Z,7.30
2019-02-06T17:28:28.737Z,7.20
2019-02-06T17:31:19.304Z,7.10
2019-02-06T17:34:04.275Z,7.10
2019-02-06T17:36:36.800Z,7.00
2019-02-06T17:39:26.011Z,7.00
2019-02-06T17:41:58.504Z,7.00
2019-02-06T17:44:30.992Z,6.90
2019-02-06T17:47:12.424Z,6.80
2019-02-06T17:49:47.853Z,6.80
2019-02-06T17:52:35.161Z,6.80
2019-02-06T17:55:18.165Z,6.80
2019-02-06T17:57:48.959Z,6.80
2019-02-06T18:00:37.746Z,6.80
2019-02-06T18:03:10.418Z,6.80
2019-02-06T18:05:41.059Z,6.80
2019-02-06T18:08:11.361Z,6.80
2019-02-06T18:10:40.625Z,6.70
2019-02-06T18:13:09.893Z,6.80
2019-02-06T18:15:39.128Z,6.80
2019-02-06T18:18:08.392Z,6.70
2019-02-06T18:20:37.624Z,6.60
2019-02-06T18:23:06.888Z,6.60
2019-02-06T18:25:36.124Z,6.50
2019-02-06T18:28:05.384Z,6.50
2019-02-06T18:30:34.625Z,6.40
2019-02-06T18:33:03.884Z,6.40
2019-02-06T18:35:34.190Z,6.30
2019-02-06T18:38:04.416Z,6.30
2019-02-06T18:40:34.628Z,6.30
2019-02-06T18:43:03.883Z,6.30
2019-02-06T18:45:33.121Z,6.30
2019-02-06T18:48:04.448Z,6.30
2019-02-06T18:50:38.088Z,6.30
2019-02-06T18:53:08.184Z,6.20
2019-02-06T18:55:37.832Z,6.30
2019-02-06T18:58:08.229Z,6.30
2019-02-06T19:00:42.190Z,6.30
2019-02-06T19:03:17.927Z,6.30
2019-02-06T19:05:47.247Z,6.40
2019-02-06T19:08:16.506Z,6.30
2019-02-06T19:10:45.744Z,6.30
2019-02-06T19:13:15.015Z,6.30
2019-02-06T19:15:44.252Z,6.30
2019-02-06T19:18:13.520Z,6.40
2019-02-06T19:20:42.824Z,6.30
2019-02-06T19:23:12.373Z,6.30
2019-02-06T19:25:41.666Z,6.30
2019-02-06T19:28:11.020Z,6.20
2019-02-06T19:30:42.506Z,6.10
2019-02-06T19:33:11.760Z,6.10
2019-02-06T19:35:41.459Z,6.10
2019-02-06T19:38:10.760Z,6.00
2019-02-06T19:40:40.350Z,6.00
2019-02-06T19:43:09.646Z,5.90
2019-02-06T19:45:39.192Z,5.90
2019-02-06T19:48:15.624Z,5.90
2019-02-06T19:50:43.307Z,5.80
2019-02-06T19:53:12.637Z,5.90
2019-02-06T19:55:41.963Z,5.90
2019-02-06T19:58:11.496Z,5.90
2019-02-06T20:00:40.744Z,5.90
2019-02-06T20:03:10.095Z,5.90
2019-02-06T20:05:39.337Z,5.90
2019-02-06T20:08:08.601Z,6.00
2019-02-06T20:10:43.732Z,5.90
2019-02-06T20:13:14.602Z,5.90
2019-02-06T20:15:44.106Z,5.90
2019-02-06T20:18:13.736Z,6.00
2019-02-06T20:20:42.983Z,5.90
2019-02-06T20:23:12.268Z,5.90
2019-02-06T20:25:41.504Z,6.00
2019-02-06T20:28:10.766Z,6.00
2019-02-06T20:30:40.013Z,6.00
2019-02-06T20:33:09.336Z,6.00
2019-02-06T20:35:38.980Z,6.00
2019-02-06T20:38:08.236Z,6.00
2019-02-06T20:40:40.377Z,6.00
2019-02-06T20:43:09.635Z,5.90
2019-02-06T20:45:38.881Z,5.90
2019-02-06T20:48:09.163Z,5.90
2019-02-06T20:50:38.695Z,5.80
2019-02-06T20:53:07.972Z,5.80
2019-02-06T20:55:37.216Z,5.90
2019-02-06T20:58:07.426Z,5.80
2019-02-06T21:00:41.168Z,5.80
2019-02-06T21:03:10.482Z,5.80
2019-02-06T21:05:39.741Z,5.70
2019-02-06T21:08:09.049Z,5.70
2019-02-06T21:10:38.325Z,5.70
2019-02-06T21:13:08.551Z,5.70
2019-02-06T21:15:37.805Z,5.70
2019-02-06T21:18:07.046Z,5.60
2019-02-06T21:20:37.276Z,5.60
2019-02-06T21:23:06.513Z,5.70
2019-02-06T21:25:35.774Z,5.60
2019-02-06T21:28:05.004Z,5.60
2019-02-06T21:30:40.102Z,5.60
2019-02-06T21:33:09.341Z,5.50
2019-02-06T21:35:38.896Z,5.50
2019-02-06T21:38:08.176Z,5.60
2019-02-06T21:40:37.812Z,5.50
2019-02-06T21:43:07.419Z,5.50
2019-02-06T21:45:36.712Z,5.50
2019-02-06T21:48:06.330Z,5.50
2019-02-06T21:50:36.068Z,5.50
2019-02-06T21:53:05.300Z,5.50
2019-02-06T21:55:34.560Z,5.60
2019-02-06T21:58:03.795Z,5.60
2019-02-06T22:00:36.311Z,5.50
2019-02-06T22:03:05.551Z,5.50
2019-02-06T22:05:35.221Z,5.50
2019-02-06T22:08:04.532Z,5.50
2019-02-06T22:10:33.787Z,5.50
2019-02-06T22:13:03.033Z,5.40
2019-02-06T22:15:32.730Z,5.40
2019-02-06T22:18:01.966Z,5.40
2019-02-06T22:20:31.424Z,5.40
2019-02-06T22:23:00.661Z,5.40
2019-02-06T22:25:29.921Z,5.40
2019-02-06T22:28:00.136Z,5.40
2019-02-06T22:30:30.225Z,5.40
2019-02-06T22:32:59.465Z,5.30
2019-02-06T22:35:28.719Z,5.40
2019-02-06T22:37:57.964Z,5.30
2019-02-06T22:40:27.238Z,5.30
2019-02-06T22:42:56.577Z,5.30
2019-02-06T22:45:27.386Z,5.40
2019-02-06T22:47:56.637Z,5.40
2019-02-06T22:50:27.634Z,5.40
2019-02-06T22:52:56.968Z,5.30
2019-02-06T22:55:26.228Z,5.30
2019-02-06T22:57:55.456Z,5.30
2019-02-06T23:00:47.617Z,5.30
2019-02-06T23:03:24.626Z,5.30
2019-02-06T23:05:53.891Z,5.40
2019-02-06T23:08:23.124Z,5.40
2019-02-06T23:10:52.392Z,5.40
2019-02-06T23:13:21.993Z,5.40
2019-02-06T23:15:52.219Z,5.40
2019-02-06T23:18:22.527Z,5.40
2019-02-06T23:20:51.792Z,5.40
2019-02-06T23:23:20.953Z,5.40
2019-02-06T23:25:50.217Z,5.40
2019-02-06T23:28:19.382Z,5.30
2019-02-06T23:30:48.643Z,5.30
2019-02-06T23:33:17.876Z,5.40
2019-02-06T23:35:47.136Z,5.30
2019-02-06T23:38:16.377Z,5.30
2019-02-06T23:40:46.036Z,5.40
2019-02-06T23:43:15.285Z,5.30
2019-02-06T23:45:44.622Z,5.30
2019-02-06T23:48:13.864Z,5.30
2019-02-06T23:50:43.129Z,5.30
2019-02-06T23:53:12.368Z,5.30
2019-02-06T23:55:42.140Z,5.30
2019-02-06T23:58:11.385Z,5.20
